sensor_id;sensor_type;location;lat;lon;timestamp;pressure;altitude;pressure_sealevel;temperature;humidity
76260;BME280;65076;52.362;6.588;2023-03-02T00:01:51;102625.59;;;2.50;83.86
76260;BME280;65076;52.362;6.588;2023-03-02T00:04:28;102632.88;;;2.62;84.20
76260;BME280;65076;52.362;6.588;2023-03-02T00:07:02;102634.53;;;2.53;83.96
76260;BME280;65076;52.362;6.588;2023-03-02T00:09:35;102632.84;;;2.59;84.40
76260;BME280;65076;52.362;6.588;2023-03-02T00:12:05;102629.16;;;2.52;83.63
76260;BME280;65076;52.362;6.588;2023-03-02T00:14:34;102641.56;;;2.45;84.00
76260;BME280;65076;52.362;6.588;2023-03-02T00:17:04;102637.03;;;2.41;84.33
76260;BME280;65076;52.362;6.588;2023-03-02T00:19:33;102636.03;;;2.33;84.59
76260;BME280;65076;52.362;6.588;2023-03-02T00:22:03;102647.84;;;2.49;84.15
76260;BME280;65076;52.362;6.588;2023-03-02T00:24:31;102651.16;;;2.33;85.02
76260;BME280;65076;52.362;6.588;2023-03-02T00:26:59;102643.34;;;2.45;84.59
76260;BME280;65076;52.362;6.588;2023-03-02T00:29:27;102642.41;;;2.43;84.64
76260;BME280;65076;52.362;6.588;2023-03-02T00:31:55;102651.06;;;2.27;84.77
76260;BME280;65076;52.362;6.588;2023-03-02T00:34:24;102645.72;;;2.27;84.95
76260;BME280;65076;52.362;6.588;2023-03-02T00:36:52;102648.59;;;2.39;84.50
76260;BME280;65076;52.362;6.588;2023-03-02T00:39:20;102649.44;;;2.35;85.38
76260;BME280;65076;52.362;6.588;2023-03-02T00:41:48;102647.66;;;2.35;84.85
76260;BME280;65076;52.362;6.588;2023-03-02T00:44:16;102643.88;;;2.20;85.86
76260;BME280;65076;52.362;6.588;2023-03-02T00:46:44;102644.84;;;2.25;85.12
76260;BME280;65076;52.362;6.588;2023-03-02T00:49:13;102648.31;;;2.21;85.29
76260;BME280;65076;52.362;6.588;2023-03-02T00:51:42;102636.84;;;2.28;85.16
76260;BME280;65076;52.362;6.588;2023-03-02T00:54:10;102637.53;;;2.13;85.38
76260;BME280;65076;52.362;6.588;2023-03-02T00:56:41;102641.97;;;2.12;85.61
76260;BME280;65076;52.362;6.588;2023-03-02T00:59:11;102635.09;;;2.28;85.74
76260;BME280;65076;52.362;6.588;2023-03-02T01:01:52;102627.84;;;2.20;84.83
76260;BME280;65076;52.362;6.588;2023-03-02T01:04:24;102622.34;;;2.09;84.69
76260;BME280;65076;52.362;6.588;2023-03-02T01:06:56;102630.34;;;2.10;85.62
76260;BME280;65076;52.362;6.588;2023-03-02T01:09:25;102619.44;;;1.95;85.29
76260;BME280;65076;52.362;6.588;2023-03-02T01:11:54;102629.28;;;1.98;85.58
76260;BME280;65076;52.362;6.588;2023-03-02T01:14:23;102630.25;;;2.03;85.66
76260;BME280;65076;52.362;6.588;2023-03-02T01:16:52;102628.31;;;1.94;86.10
76260;BME280;65076;52.362;6.588;2023-03-02T01:19:20;102623.03;;;1.96;86.05
76260;BME280;65076;52.362;6.588;2023-03-02T01:21:48;102622.91;;;1.90;86.04
76260;BME280;65076;52.362;6.588;2023-03-02T01:24:17;102618.31;;;1.80;86.17
76260;BME280;65076;52.362;6.588;2023-03-02T01:26:45;102614.78;;;1.81;85.75
76260;BME280;65076;52.362;6.588;2023-03-02T01:29:13;102613.81;;;1.76;85.93
76260;BME280;65076;52.362;6.588;2023-03-02T01:31:41;102608.44;;;1.74;86.23
76260;BME280;65076;52.362;6.588;2023-03-02T01:34:09;102603.13;;;1.76;86.02
76260;BME280;65076;52.362;6.588;2023-03-02T01:36:37;102596.06;;;1.78;86.62
76260;BME280;65076;52.362;6.588;2023-03-02T01:39:05;102596.75;;;1.67;86.49
76260;BME280;65076;52.362;6.588;2023-03-02T01:41:34;102589.78;;;1.76;86.66
76260;BME280;65076;52.362;6.588;2023-03-02T01:44:02;102597.72;;;1.71;86.77
76260;BME280;65076;52.362;6.588;2023-03-02T01:46:31;102596.78;;;1.69;86.72
76260;BME280;65076;52.362;6.588;2023-03-02T01:49:02;102589.59;;;1.62;87.04
76260;BME280;65076;52.362;6.588;2023-03-02T01:51:34;102583.16;;;1.51;86.83
76260;BME280;65076;52.362;6.588;2023-03-02T01:54:14;102584.94;;;1.50;86.95
76260;BME280;65076;52.362;6.588;2023-03-02T01:56:51;102590.19;;;1.46;86.92
76260;BME280;65076;52.362;6.588;2023-03-02T01:59:25;102594.75;;;1.53;86.76
76260;BME280;65076;52.362;6.588;2023-03-02T02:01:59;102586.13;;;1.69;86.55
76260;BME280;65076;52.362;6.588;2023-03-02T02:04:30;102585.09;;;1.61;86.08
76260;BME280;65076;52.362;6.588;2023-03-02T02:07:05;102576.91;;;1.49;86.62
76260;BME280;65076;52.362;6.588;2023-03-02T02:09:37;102569.75;;;1.46;86.45
76260;BME280;65076;52.362;6.588;2023-03-02T02:12:13;102566.97;;;1.40;86.61
76260;BME280;65076;52.362;6.588;2023-03-02T02:14:42;102568.78;;;1.43;86.96
76260;BME280;65076;52.362;6.588;2023-03-02T02:17:12;102569.63;;;1.39;87.07
76260;BME280;65076;52.362;6.588;2023-03-02T02:19:49;102560.03;;;1.50;86.42
76260;BME280;65076;52.362;6.588;2023-03-02T02:22:35;102564.44;;;1.48;86.69
76260;BME280;65076;52.362;6.588;2023-03-02T02:25:21;102566.13;;;1.43;86.99
76260;BME280;65076;52.362;6.588;2023-03-02T02:28:11;102568.16;;;1.59;86.84
76260;BME280;65076;52.362;6.588;2023-03-02T02:30:44;102568.03;;;1.50;86.88
76260;BME280;65076;52.362;6.588;2023-03-02T02:33:17;102559.88;;;1.41;86.72
76260;BME280;65076;52.362;6.588;2023-03-02T02:35:59;102561.81;;;1.51;86.72
76260;BME280;65076;52.362;6.588;2023-03-02T02:38:30;102565.94;;;1.31;87.04
76260;BME280;65076;52.362;6.588;2023-03-02T02:41:03;102565.16;;;1.38;86.98
76260;BME280;65076;52.362;6.588;2023-03-02T02:43:36;102564.13;;;1.30;86.84
76260;BME280;65076;52.362;6.588;2023-03-02T02:46:04;102569.63;;;1.39;86.50
76260;BME280;65076;52.362;6.588;2023-03-02T02:48:32;102568.81;;;1.44;86.80
76260;BME280;65076;52.362;6.588;2023-03-02T02:51:01;102574.22;;;1.49;86.49
76260;BME280;65076;52.362;6.588;2023-03-02T02:53:34;102567.09;;;1.46;86.68
76260;BME280;65076;52.362;6.588;2023-03-02T02:56:10;102568.94;;;1.50;86.32
76260;BME280;65076;52.362;6.588;2023-03-02T02:58:43;102573.38;;;1.50;86.65
76260;BME280;65076;52.362;6.588;2023-03-02T03:01:16;102569.66;;;1.42;86.09
76260;BME280;65076;52.362;6.588;2023-03-02T03:03:52;102570.56;;;1.41;86.13
76260;BME280;65076;52.362;6.588;2023-03-02T03:06:24;102579.16;;;1.26;86.05
76260;BME280;65076;52.362;6.588;2023-03-02T03:08:58;102574.88;;;1.34;86.88
76260;BME280;65076;52.362;6.588;2023-03-02T03:11:29;102574.69;;;1.23;86.79
76260;BME280;65076;52.362;6.588;2023-03-02T03:14:05;102569.34;;;1.23;87.20
76260;BME280;65076;52.362;6.588;2023-03-02T03:16:36;102570.28;;;1.27;87.62
76260;BME280;65076;52.362;6.588;2023-03-02T03:19:10;102566.81;;;1.31;86.95
76260;BME280;65076;52.362;6.588;2023-03-02T03:21:44;102577.56;;;1.37;86.96
76260;BME280;65076;52.362;6.588;2023-03-02T03:24:14;102581.09;;;1.35;85.96
76260;BME280;65076;52.362;6.588;2023-03-02T03:26:42;102580.13;;;1.30;85.78
76260;BME280;65076;52.362;6.588;2023-03-02T03:29:12;102571.28;;;1.31;86.39
76260;BME280;65076;52.362;6.588;2023-03-02T03:31:41;102560.56;;;1.29;85.80
76260;BME280;65076;52.362;6.588;2023-03-02T03:34:09;102561.56;;;1.36;86.09
76260;BME280;65076;52.362;6.588;2023-03-02T03:36:37;102552.47;;;1.23;85.92
76260;BME280;65076;52.362;6.588;2023-03-02T03:39:10;102557.75;;;1.20;86.14
76260;BME280;65076;52.362;6.588;2023-03-02T03:41:39;102548.66;;;1.10;86.55
76260;BME280;65076;52.362;6.588;2023-03-02T03:44:07;102552.41;;;1.20;86.46
76260;BME280;65076;52.362;6.588;2023-03-02T03:46:37;102550.19;;;0.96;87.05
76260;BME280;65076;52.362;6.588;2023-03-02T03:49:05;102553.28;;;1.20;86.53
76260;BME280;65076;52.362;6.588;2023-03-02T03:51:33;102553.19;;;1.14;86.69
76260;BME280;65076;52.362;6.588;2023-03-02T03:54:02;102548.88;;;1.22;86.12
76260;BME280;65076;52.362;6.588;2023-03-02T03:56:34;102562.78;;;1.05;85.61
76260;BME280;65076;52.362;6.588;2023-03-02T03:59:05;102566.41;;;1.08;86.23
76260;BME280;65076;52.362;6.588;2023-03-02T04:01:39;102571.66;;;1.05;85.92
76260;BME280;65076;52.362;6.588;2023-03-02T04:04:11;102555.63;;;1.02;86.18
76260;BME280;65076;52.362;6.588;2023-03-02T04:06:41;102570.69;;;0.99;86.28
76260;BME280;65076;52.362;6.588;2023-03-02T04:09:09;102575.03;;;0.95;86.32
76260;BME280;65076;52.362;6.588;2023-03-02T04:11:42;102560.09;;;1.05;86.45
76260;BME280;65076;52.362;6.588;2023-03-02T04:14:12;102552.22;;;1.09;86.04
76260;BME280;65076;52.362;6.588;2023-03-02T04:16:43;102559.94;;;0.94;86.48
76260;BME280;65076;52.362;6.588;2023-03-02T04:19:12;102559.16;;;1.01;86.61
76260;BME280;65076;52.362;6.588;2023-03-02T04:21:45;102554.69;;;0.99;86.68
76260;BME280;65076;52.362;6.588;2023-03-02T04:24:16;102557.44;;;1.03;86.76
76260;BME280;65076;52.362;6.588;2023-03-02T04:26:46;102559.31;;;1.09;86.11
76260;BME280;65076;52.362;6.588;2023-03-02T04:29:15;102556.78;;;1.15;86.00
76260;BME280;65076;52.362;6.588;2023-03-02T04:31:45;102562.06;;;1.13;85.96
76260;BME280;65076;52.362;6.588;2023-03-02T04:34:14;102567.50;;;1.19;86.18
76260;BME280;65076;52.362;6.588;2023-03-02T04:36:42;102565.47;;;1.06;86.09
76260;BME280;65076;52.362;6.588;2023-03-02T04:39:11;102562.28;;;1.25;86.34
76260;BME280;65076;52.362;6.588;2023-03-02T04:41:40;102569.47;;;1.30;85.84
76260;BME280;65076;52.362;6.588;2023-03-02T04:44:09;102569.47;;;1.30;86.17
76260;BME280;65076;52.362;6.588;2023-03-02T04:46:37;102565.00;;;1.28;85.94
76260;BME280;65076;52.362;6.588;2023-03-02T04:49:10;102580.31;;;1.42;85.56
76260;BME280;65076;52.362;6.588;2023-03-02T04:51:41;102578.38;;;1.32;85.78
76260;BME280;65076;52.362;6.588;2023-03-02T04:54:13;102583.78;;;1.36;85.58
76260;BME280;65076;52.362;6.588;2023-03-02T04:56:43;102585.84;;;1.51;85.52
76260;BME280;65076;52.362;6.588;2023-03-02T04:59:16;102575.91;;;1.44;85.52
76260;BME280;65076;52.362;6.588;2023-03-02T05:01:45;102581.28;;;1.47;85.53
76260;BME280;65076;52.362;6.588;2023-03-02T05:04:15;102574.41;;;1.59;84.99
76260;BME280;65076;52.362;6.588;2023-03-02T05:06:43;102577.00;;;1.55;85.27
76260;BME280;65076;52.362;6.588;2023-03-02T05:09:11;102568.31;;;1.68;84.91
76260;BME280;65076;52.362;6.588;2023-03-02T05:11:40;102570.94;;;1.65;84.94
76260;BME280;65076;52.362;6.588;2023-03-02T05:14:10;102571.66;;;1.55;84.30
76260;BME280;65076;52.362;6.588;2023-03-02T05:16:40;102573.22;;;1.42;84.60
76260;BME280;65076;52.362;6.588;2023-03-02T05:19:10;102571.97;;;1.75;85.14
76260;BME280;65076;52.362;6.588;2023-03-02T05:21:40;102571.44;;;1.43;85.04
76260;BME280;65076;52.362;6.588;2023-03-02T05:24:08;102563.47;;;1.98;84.55
76260;BME280;65076;52.362;6.588;2023-03-02T05:26:37;102565.09;;;1.90;83.17
76260;BME280;65076;52.362;6.588;2023-03-02T05:29:06;102569.00;;;2.13;83.29
76260;BME280;65076;52.362;6.588;2023-03-02T05:31:36;102565.91;;;1.83;83.26
76260;BME280;65076;52.362;6.588;2023-03-02T05:34:08;102573.91;;;1.83;82.93
76260;BME280;65076;52.362;6.588;2023-03-02T05:36:40;102567.63;;;1.81;83.80
76260;BME280;65076;52.362;6.588;2023-03-02T05:39:08;102576.34;;;1.69;83.61
76260;BME280;65076;52.362;6.588;2023-03-02T05:41:37;102570.69;;;2.07;82.78
76260;BME280;65076;52.362;6.588;2023-03-02T05:44:06;102582.13;;;1.97;82.44
76260;BME280;65076;52.362;6.588;2023-03-02T05:46:37;102574.88;;;1.90;83.00
76260;BME280;65076;52.362;6.588;2023-03-02T05:49:05;102572.28;;;1.94;82.76
76260;BME280;65076;52.362;6.588;2023-03-02T05:51:33;102571.16;;;1.77;82.75
76260;BME280;65076;52.362;6.588;2023-03-02T05:54:02;102566.38;;;1.58;82.49
76260;BME280;65076;52.362;6.588;2023-03-02T05:56:30;102562.84;;;1.59;82.96
76260;BME280;65076;52.362;6.588;2023-03-02T05:58:59;102563.13;;;1.77;83.14
76260;BME280;65076;52.362;6.588;2023-03-02T06:01:27;102564.59;;;1.57;82.17
76260;BME280;65076;52.362;6.588;2023-03-02T06:03:55;102569.75;;;1.48;83.54
76260;BME280;65076;52.362;6.588;2023-03-02T06:06:23;102575.91;;;1.44;84.42
76260;BME280;65076;52.362;6.588;2023-03-02T06:08:51;102575.84;;;1.39;84.78
76260;BME280;65076;52.362;6.588;2023-03-02T06:11:20;102572.47;;;1.49;85.01
76260;BME280;65076;52.362;6.588;2023-03-02T06:13:48;102576.06;;;1.51;85.32
76260;BME280;65076;52.362;6.588;2023-03-02T06:16:16;102582.13;;;1.43;85.05
76260;BME280;65076;52.362;6.588;2023-03-02T06:18:44;102581.31;;;1.48;85.23
76260;BME280;65076;52.362;6.588;2023-03-02T06:21:13;102590.28;;;1.52;85.94
76260;BME280;65076;52.362;6.588;2023-03-02T06:23:41;102588.59;;;1.57;86.25
76260;BME280;65076;52.362;6.588;2023-03-02T06:26:09;102588.59;;;1.57;85.40
76260;BME280;65076;52.362;6.588;2023-03-02T06:28:39;102591.31;;;1.60;85.54
76260;BME280;65076;52.362;6.588;2023-03-02T06:31:19;102592.22;;;1.60;85.66
76260;BME280;65076;52.362;6.588;2023-03-02T06:33:47;102590.44;;;1.62;85.38
76260;BME280;65076;52.362;6.588;2023-03-02T06:36:15;102601.94;;;1.57;85.60
76260;BME280;65076;52.362;6.588;2023-03-02T06:38:43;102594.91;;;1.62;85.54
76260;BME280;65076;52.362;6.588;2023-03-02T06:41:11;102602.88;;;1.60;85.22
76260;BME280;65076;52.362;6.588;2023-03-02T06:43:41;102600.50;;;1.79;85.35
76260;BME280;65076;52.362;6.588;2023-03-02T06:46:09;102596.91;;;1.75;85.41
76260;BME280;65076;52.362;6.588;2023-03-02T06:48:37;102598.06;;;1.92;85.35
76260;BME280;65076;52.362;6.588;2023-03-02T06:51:07;102601.72;;;1.99;85.11
76260;BME280;65076;52.362;6.588;2023-03-02T06:53:35;102602.41;;;1.86;85.15
76260;BME280;65076;52.362;6.588;2023-03-02T06:56:03;102599.69;;;1.83;84.96
76260;BME280;65076;52.362;6.588;2023-03-02T06:58:32;102598.72;;;1.79;85.04
76260;BME280;65076;52.362;6.588;2023-03-02T07:01:01;102590.66;;;1.75;85.57
76260;BME280;65076;52.362;6.588;2023-03-02T07:03:30;102600.50;;;1.77;85.51
76260;BME280;65076;52.362;6.588;2023-03-02T07:05:58;102591.16;;;2.06;85.84
76260;BME280;65076;52.362;6.588;2023-03-02T07:08:26;102602.63;;;2.01;84.77
76260;BME280;65076;52.362;6.588;2023-03-02T07:10:54;102600.88;;;2.01;85.05
76260;BME280;65076;52.362;6.588;2023-03-02T07:13:22;102600.34;;;2.27;84.83
76260;BME280;65076;52.362;6.588;2023-03-02T07:15:50;102597.53;;;2.18;84.27
76260;BME280;65076;52.362;6.588;2023-03-02T07:18:21;102600.22;;;2.18;85.10
76260;BME280;65076;52.362;6.588;2023-03-02T07:20:49;102601.59;;;1.91;85.12
76260;BME280;65076;52.362;6.588;2023-03-02T07:23:19;102599.41;;;2.23;84.94
76260;BME280;65076;52.362;6.588;2023-03-02T07:25:47;102602.31;;;2.41;83.89
76260;BME280;65076;52.362;6.588;2023-03-02T07:28:15;102599.75;;;2.49;84.24
76260;BME280;65076;52.362;6.588;2023-03-02T07:30:42;102604.25;;;2.53;84.15
76260;BME280;65076;52.362;6.588;2023-03-02T07:33:10;102594.69;;;2.70;83.61
76260;BME280;65076;52.362;6.588;2023-03-02T07:35:40;102593.94;;;2.82;83.37
76260;BME280;65076;52.362;6.588;2023-03-02T07:38:08;102594.44;;;2.50;84.00
76260;BME280;65076;52.362;6.588;2023-03-02T07:40:39;102596.50;;;2.71;84.19
76260;BME280;65076;52.362;6.588;2023-03-02T07:43:07;102590.28;;;2.75;83.75
76260;BME280;65076;52.362;6.588;2023-03-02T07:45:35;102591.00;;;2.62;82.89
76260;BME280;65076;52.362;6.588;2023-03-02T07:48:04;102587.94;;;2.32;83.61
76260;BME280;65076;52.362;6.588;2023-03-02T07:50:32;102588.06;;;2.41;84.24
76260;BME280;65076;52.362;6.588;2023-03-02T07:53:02;102582.75;;;2.42;84.82
76260;BME280;65076;52.362;6.588;2023-03-02T07:55:30;102597.06;;;2.47;84.26
76260;BME280;65076;52.362;6.588;2023-03-02T07:57:58;102591.69;;;2.44;84.86
76260;BME280;65076;52.362;6.588;2023-03-02T08:00:26;102587.66;;;2.77;84.20
76260;BME280;65076;52.362;6.588;2023-03-02T08:02:54;102591.16;;;2.74;83.46
76260;BME280;65076;52.362;6.588;2023-03-02T08:05:22;102596.06;;;2.39;84.84
76260;BME280;65076;52.362;6.588;2023-03-02T08:07:50;102592.88;;;2.69;84.42
76260;BME280;65076;52.362;6.588;2023-03-02T08:10:19;102590.25;;;2.74;83.82
76260;BME280;65076;52.362;6.588;2023-03-02T08:12:48;102595.91;;;2.98;83.76
76260;BME280;65076;52.362;6.588;2023-03-02T08:15:16;102596.34;;;2.62;84.04
76260;BME280;65076;52.362;6.588;2023-03-02T08:17:44;102595.81;;;2.90;85.23
76260;BME280;65076;52.362;6.588;2023-03-02T08:20:12;102597.56;;;2.87;84.31
76260;BME280;65076;52.362;6.588;2023-03-02T08:22:40;102595.13;;;3.08;84.03
76260;BME280;65076;52.362;6.588;2023-03-02T08:25:08;102591.63;;;3.15;83.39
76260;BME280;65076;52.362;6.588;2023-03-02T08:27:38;102595.97;;;3.03;83.95
76260;BME280;65076;52.362;6.588;2023-03-02T08:30:07;102591.59;;;3.12;83.93
76260;BME280;65076;52.362;6.588;2023-03-02T08:32:38;102585.31;;;3.07;83.44
76260;BME280;65076;52.362;6.588;2023-03-02T08:35:07;102591.63;;;3.14;82.59
76260;BME280;65076;52.362;6.588;2023-03-02T08:37:35;102598.69;;;3.10;82.40
76260;BME280;65076;52.362;6.588;2023-03-02T08:40:04;102591.66;;;3.18;83.01
76260;BME280;65076;52.362;6.588;2023-03-02T08:42:33;102602.56;;;3.41;81.63
76260;BME280;65076;52.362;6.588;2023-03-02T08:45:03;102600.91;;;3.54;81.32
76260;BME280;65076;52.362;6.588;2023-03-02T08:47:32;102601.75;;;3.51;80.93
76260;BME280;65076;52.362;6.588;2023-03-02T08:50:00;102592.38;;;4.02;80.74
76260;BME280;65076;52.362;6.588;2023-03-02T08:52:28;102585.50;;;4.48;78.82
76260;BME280;65076;52.362;6.588;2023-03-02T08:54:56;102598.03;;;4.56;78.09
76260;BME280;65076;52.362;6.588;2023-03-02T08:57:24;102598.00;;;4.47;78.18
76260;BME280;65076;52.362;6.588;2023-03-02T08:59:52;102593.34;;;4.16;78.34
76260;BME280;65076;52.362;6.588;2023-03-02T09:02:21;102588.81;;;4.03;78.59
76260;BME280;65076;52.362;6.588;2023-03-02T09:04:49;102590.66;;;4.13;78.89
76260;BME280;65076;52.362;6.588;2023-03-02T09:07:17;102592.47;;;4.20;78.72
76260;BME280;65076;52.362;6.588;2023-03-02T09:09:45;102585.47;;;4.43;78.32
76260;BME280;65076;52.362;6.588;2023-03-02T09:12:13;102585.47;;;4.46;78.32
76260;BME280;65076;52.362;6.588;2023-03-02T09:14:41;102588.00;;;4.19;77.64
76260;BME280;65076;52.362;6.588;2023-03-02T09:17:09;102588.03;;;4.22;77.39
76260;BME280;65076;52.362;6.588;2023-03-02T09:19:39;102590.84;;;4.46;77.03
76260;BME280;65076;52.362;6.588;2023-03-02T09:22:10;102579.25;;;4.52;77.36
76260;BME280;65076;52.362;6.588;2023-03-02T09:24:38;102587.09;;;4.17;78.11
76260;BME280;65076;52.362;6.588;2023-03-02T09:27:06;102579.38;;;4.81;76.43
76260;BME280;65076;52.362;6.588;2023-03-02T09:29:34;102583.78;;;4.63;76.41
76260;BME280;65076;52.362;6.588;2023-03-02T09:32:02;102584.78;;;4.91;75.43
76260;BME280;65076;52.362;6.588;2023-03-02T09:34:30;102580.34;;;5.24;74.87
76260;BME280;65076;52.362;6.588;2023-03-02T09:37:00;102587.56;;;5.53;74.04
76260;BME280;65076;52.362;6.588;2023-03-02T09:39:28;102572.34;;;5.72;73.09
76260;BME280;65076;52.362;6.588;2023-03-02T09:42:09;102577.72;;;5.65;72.89
76260;BME280;65076;52.362;6.588;2023-03-02T09:45:12;102580.38;;;5.62;72.90
76260;BME280;65076;52.362;6.588;2023-03-02T09:47:54;102584.88;;;5.64;72.08
76260;BME280;65076;52.362;6.588;2023-03-02T09:50:39;102585.75;;;5.33;72.21
76260;BME280;65076;52.362;6.588;2023-03-02T09:53:33;102582.19;;;5.57;72.18
76260;BME280;65076;52.362;6.588;2023-03-02T09:56:12;102577.69;;;5.31;72.88
76260;BME280;65076;52.362;6.588;2023-03-02T09:58:47;102580.41;;;6.12;70.94
76260;BME280;65076;52.362;6.588;2023-03-02T10:01:29;102572.84;;;7.05;67.50
76260;BME280;65076;52.362;6.588;2023-03-02T10:04:16;102574.91;;;6.41;68.46
76260;BME280;65076;52.362;6.588;2023-03-02T10:06:54;102570.63;;;7.60;64.41
76260;BME280;65076;52.362;6.588;2023-03-02T10:09:25;102569.56;;;7.81;64.16
76260;BME280;65076;52.362;6.588;2023-03-02T10:12:07;102567.00;;;7.67;64.48
76260;BME280;65076;52.362;6.588;2023-03-02T10:14:51;102567.75;;;7.84;63.81
76260;BME280;65076;52.362;6.588;2023-03-02T10:17:37;102569.97;;;7.32;64.47
76260;BME280;65076;52.362;6.588;2023-03-02T10:20:20;102576.16;;;7.46;66.08
76260;BME280;65076;52.362;6.588;2023-03-02T10:23:08;102574.53;;;7.18;66.02
76260;BME280;65076;52.362;6.588;2023-03-02T10:25:53;102567.63;;;6.73;67.81
76260;BME280;65076;52.362;6.588;2023-03-02T10:28:32;102571.25;;;6.69;67.46
76260;BME280;65076;52.362;6.588;2023-03-02T10:31:09;102571.13;;;6.87;66.96
76260;BME280;65076;52.362;6.588;2023-03-02T10:33:41;102568.34;;;7.04;67.30
76260;BME280;65076;52.362;6.588;2023-03-02T10:36:18;102572.03;;;6.89;66.78
76260;BME280;65076;52.362;6.588;2023-03-02T10:38:50;102574.56;;;7.16;66.36
76260;BME280;65076;52.362;6.588;2023-03-02T10:41:22;102576.28;;;7.23;65.05
76260;BME280;65076;52.362;6.588;2023-03-02T10:43:59;102570.94;;;7.20;66.10
76260;BME280;65076;52.362;6.588;2023-03-02T10:46:38;102571.63;;;7.53;64.00
76260;BME280;65076;52.362;6.588;2023-03-02T10:49:23;102568.09;;;7.40;63.89
76260;BME280;65076;52.362;6.588;2023-03-02T10:51:55;102571.41;;;7.77;64.07
76260;BME280;65076;52.362;6.588;2023-03-02T10:54:26;102564.94;;;7.95;62.83
76260;BME280;65076;52.362;6.588;2023-03-02T10:56:59;102571.16;;;8.01;62.54
76260;BME280;65076;52.362;6.588;2023-03-02T10:59:40;102569.75;;;8.51;61.55
76260;BME280;65076;52.362;6.588;2023-03-02T11:02:18;102560.00;;;8.39;60.90
76260;BME280;65076;52.362;6.588;2023-03-02T11:04:53;102565.25;;;9.17;59.32
76260;BME280;65076;52.362;6.588;2023-03-02T11:07:25;102559.25;;;8.96;59.20
76260;BME280;65076;52.362;6.588;2023-03-02T11:10:02;102555.38;;;10.20;56.84
76260;BME280;65076;52.362;6.588;2023-03-02T11:12:35;102553.66;;;10.18;56.27
76260;BME280;65076;52.362;6.588;2023-03-02T11:15:17;102555.91;;;10.41;56.07
76260;BME280;65076;52.362;6.588;2023-03-02T11:17:52;102556.91;;;9.88;56.82
76260;BME280;65076;52.362;6.588;2023-03-02T11:20:29;102552.09;;;10.51;56.03
76260;BME280;65076;52.362;6.588;2023-03-02T11:23:25;102536.34;;;10.70;55.13
76260;BME280;65076;52.362;6.588;2023-03-02T11:26:04;102542.44;;;10.81;52.81
76260;BME280;65076;52.362;6.588;2023-03-02T11:28:45;102547.72;;;10.87;51.85
76260;BME280;65076;52.362;6.588;2023-03-02T11:31:22;102533.97;;;10.96;51.44
76260;BME280;65076;52.362;6.588;2023-03-02T11:36:59;102535.38;;;11.12;51.44
76260;BME280;65076;52.362;6.588;2023-03-02T11:39:55;102533.31;;;11.23;52.26
76260;BME280;65076;52.362;6.588;2023-03-02T11:42:32;102529.63;;;11.63;50.88
76260;BME280;65076;52.362;6.588;2023-03-02T11:45:15;102531.81;;;11.10;51.31
76260;BME280;65076;52.362;6.588;2023-03-02T11:47:50;102513.81;;;11.81;50.11
76260;BME280;65076;52.362;6.588;2023-03-02T11:50:31;102521.88;;;11.83;50.09
76260;BME280;65076;52.362;6.588;2023-03-02T11:53:09;102518.81;;;11.97;50.06
76260;BME280;65076;52.362;6.588;2023-03-02T11:55:43;102508.31;;;12.77;47.55
76260;BME280;65076;52.362;6.588;2023-03-02T11:58:17;102506.03;;;12.32;49.21
76260;BME280;65076;52.362;6.588;2023-03-02T12:00:50;102500.19;;;12.15;49.79
76260;BME280;65076;52.362;6.588;2023-03-02T12:03:23;102505.84;;;11.74;50.96
76260;BME280;65076;52.362;6.588;2023-03-02T12:06:05;102488.19;;;11.93;50.50
76260;BME280;65076;52.362;6.588;2023-03-02T12:08:38;102492.47;;;12.32;49.26
76260;BME280;65076;52.362;6.588;2023-03-02T12:11:28;102494.72;;;11.14;49.47
76260;BME280;65076;52.362;6.588;2023-03-02T12:14:02;102479.63;;;11.74;47.78
76260;BME280;65076;52.362;6.588;2023-03-02T12:16:38;102478.47;;;12.15;47.91
76260;BME280;65076;52.362;6.588;2023-03-02T12:19:12;102476.09;;;11.71;48.52
76260;BME280;65076;52.362;6.588;2023-03-02T12:21:57;102477.81;;;12.07;48.72
76260;BME280;65076;52.362;6.588;2023-03-02T12:24:29;102473.00;;;11.86;49.19
76260;BME280;65076;52.362;6.588;2023-03-02T12:27:00;102460.94;;;11.98;48.09
76260;BME280;65076;52.362;6.588;2023-03-02T12:29:38;102461.44;;;11.78;48.91
76260;BME280;65076;52.362;6.588;2023-03-02T12:32:19;102470.22;;;11.54;49.59
76260;BME280;65076;52.362;6.588;2023-03-02T12:34:53;102463.31;;;12.39;47.58
76260;BME280;65076;52.362;6.588;2023-03-02T12:37:25;102458.69;;;12.12;48.73
76260;BME280;65076;52.362;6.588;2023-03-02T12:40:24;102457.03;;;11.72;50.03
76260;BME280;65076;52.362;6.588;2023-03-02T12:43:15;102450.06;;;11.64;51.35
76260;BME280;65076;52.362;6.588;2023-03-02T12:49:14;102436.59;;;11.61;50.55
76260;BME280;65076;52.362;6.588;2023-03-02T12:51:54;102441.63;;;11.76;49.96
76260;BME280;65076;52.362;6.588;2023-03-02T12:54:26;102436.75;;;11.55;50.50
76260;BME280;65076;52.362;6.588;2023-03-02T12:57:04;102432.84;;;11.99;49.16
76260;BME280;65076;52.362;6.588;2023-03-02T12:59:35;102426.44;;;12.01;49.21
76260;BME280;65076;52.362;6.588;2023-03-02T13:02:12;102427.78;;;12.47;48.13
76260;BME280;65076;52.362;6.588;2023-03-02T13:04:51;102427.72;;;11.54;48.97
76260;BME280;65076;52.362;6.588;2023-03-02T13:07:23;102414.66;;;12.02;49.09
76260;BME280;65076;52.362;6.588;2023-03-02T13:09:56;102415.47;;;11.73;49.55
76260;BME280;65076;52.362;6.588;2023-03-02T13:12:27;102409.00;;;12.10;48.72
76260;BME280;65076;52.362;6.588;2023-03-02T13:14:57;102400.69;;;11.85;49.14
76260;BME280;65076;52.362;6.588;2023-03-02T13:17:27;102405.69;;;12.59;48.31
76260;BME280;65076;52.362;6.588;2023-03-02T13:20:02;102392.66;;;11.82;48.83
76260;BME280;65076;52.362;6.588;2023-03-02T13:22:31;102392.38;;;12.22;47.84
76260;BME280;65076;52.362;6.588;2023-03-02T13:25:01;102389.69;;;12.20;47.09
76260;BME280;65076;52.362;6.588;2023-03-02T13:27:31;102385.28;;;12.46;47.35
76260;BME280;65076;52.362;6.588;2023-03-02T13:30:08;102377.13;;;12.46;48.33